createdAt,value
2022-12-04T00:00:50.962Z,96.19
2022-12-04T00:01:52.518Z,95.12
2022-12-04T00:02:54.105Z,95.38
2022-12-04T00:03:58.879Z,94.67
2022-12-04T00:05:00.702Z,94.45
2022-12-04T00:06:04.809Z,94.63
2022-12-04T00:07:06.437Z,93.77
2022-12-04T00:08:08.020Z,93.49
2022-12-04T00:09:09.944Z,93.27
2022-12-04T00:10:11.593Z,93.03
2022-12-04T00:11:14.954Z,93.34
2022-12-04T00:12:16.503Z,93.44
2022-12-04T00:13:19.318Z,93.46
2022-12-04T00:14:20.890Z,93.22
2022-12-04T00:15:28.041Z,93.17
2022-12-04T00:16:29.944Z,93.33
2022-12-04T00:17:31.561Z,93.70
2022-12-04T00:18:33.262Z,93.90
2022-12-04T00:19:34.859Z,94.36
2022-12-04T00:20:39.919Z,94.67
2022-12-04T00:21:41.497Z,94.95
2022-12-04T00:22:43.013Z,95.93
2022-12-04T00:23:44.828Z,95.76
2022-12-04T00:24:46.448Z,95.74
2022-12-04T00:25:48.890Z,96.47
2022-12-04T00:26:50.641Z,96.37
2022-12-04T00:27:52.192Z,96.32
2022-12-04T00:28:54.422Z,96.81
2022-12-04T00:29:56.258Z,97.26
2022-12-04T00:30:58.022Z,97.98
2022-12-04T00:31:59.613Z,97.73
2022-12-04T00:33:01.118Z,98.12
2022-12-04T00:34:07.560Z,98.23
2022-12-04T00:35:10.033Z,97.99
2022-12-04T00:36:14.585Z,98.28
2022-12-04T00:37:16.187Z,98.25
2022-12-04T00:38:17.747Z,97.50
2022-12-04T00:39:19.311Z,98.25
2022-12-04T00:40:20.881Z,97.53
2022-12-04T00:41:25.025Z,97.70
2022-12-04T00:42:26.613Z,97.46
2022-12-04T00:43:29.378Z,97.74
2022-12-04T00:44:30.894Z,97.55
2022-12-04T00:45:32.484Z,97.91
2022-12-04T00:46:34.135Z,97.60
2022-12-04T00:47:35.716Z,97.48
2022-12-04T00:48:37.396Z,97.64
2022-12-04T00:49:38.997Z,97.15
2022-12-04T00:50:40.814Z,97.33
2022-12-04T00:51:42.327Z,96.75
2022-12-04T00:52:43.914Z,96.91
2022-12-04T00:53:46.202Z,96.31
2022-12-04T00:54:47.758Z,96.50
2022-12-04T00:55:49.321Z,96.74
2022-12-04T00:56:50.941Z,96.80
2022-12-04T00:57:57.132Z,97.85
2022-12-04T00:59:01.793Z,97.88
2022-12-04T01:00:04.997Z,97.95
2022-12-04T01:01:13.441Z,98.00
2022-12-04T01:02:14.990Z,98.08
2022-12-04T01:03:16.609Z,98.02
2022-12-04T01:04:18.167Z,97.80
2022-12-04T01:05:19.866Z,97.98
2022-12-04T01:06:30.723Z,97.74
2022-12-04T01:07:32.249Z,97.72
2022-12-04T01:08:34.437Z,97.21
2022-12-04T01:09:36.080Z,96.92
2022-12-04T01:10:41.996Z,96.59
2022-12-04T01:11:43.575Z,96.44
2022-12-04T01:12:45.154Z,96.61
2022-12-04T01:13:47.020Z,96.34
2022-12-04T01:14:48.539Z,96.56
2022-12-04T01:15:50.258Z,96.44
2022-12-04T01:16:51.898Z,96.39
2022-12-04T01:17:53.503Z,96.48
2022-12-04T01:18:55.130Z,96.81
2022-12-04T01:19:57.236Z,96.81
2022-12-04T01:20:59.005Z,96.94
2022-12-04T01:22:00.562Z,97.33
2022-12-04T01:23:02.261Z,97.23
2022-12-04T01:24:04.726Z,97.43
2022-12-04T01:25:07.021Z,97.48
2022-12-04T01:26:08.654Z,97.46
2022-12-04T01:27:10.193Z,97.18
2022-12-04T01:28:11.994Z,96.94
2022-12-04T01:29:13.569Z,96.67
2022-12-04T01:30:15.152Z,96.97
2022-12-04T01:31:19.208Z,96.78
2022-12-04T01:32:20.894Z,96.66
2022-12-04T01:33:22.418Z,96.48
2022-12-04T01:34:25.369Z,96.91
2022-12-04T01:35:26.890Z,97.30
2022-12-04T01:36:28.948Z,97.03
2022-12-04T01:37:32.038Z,97.58
2022-12-04T01:38:34.846Z,98.05
2022-12-04T01:39:37.323Z,98.41
2022-12-04T01:40:44.375Z,98.77
2022-12-04T01:41:46.244Z,99.64
2022-12-04T01:42:47.767Z,99.52
2022-12-04T01:44:18.608Z,100.00
2022-12-04T01:45:40.135Z,100.00
2022-12-04T01:46:43.451Z,100.00
2022-12-04T01:47:45.183Z,100.00
2022-12-04T01:48:52.535Z,100.00
2022-12-04T01:49:54.425Z,100.00
2022-12-04T01:51:04.979Z,100.00
2022-12-04T01:52:21.411Z,100.00
2022-12-04T01:53:23.030Z,100.00
2022-12-04T01:54:28.989Z,100.00
2022-12-04T01:55:31.644Z,100.00
2022-12-04T01:56:46.879Z,100.00
2022-12-04T01:57:48.450Z,100.00
2022-12-04T01:58:54.749Z,100.00
2022-12-04T02:00:00.848Z,100.00
2022-12-04T02:01:08.792Z,100.00
2022-12-04T02:02:15.993Z,100.00
2022-12-04T02:03:17.999Z,100.00
2022-12-04T02:04:20.277Z,100.00
2022-12-04T02:05:22.899Z,100.00
2022-12-04T02:06:24.533Z,100.00
2022-12-04T02:07:26.613Z,100.00
2022-12-04T02:08:29.054Z,100.00
2022-12-04T02:09:31.770Z,100.00
2022-12-04T02:10:50.499Z,100.00
2022-12-04T02:12:03.677Z,100.00
2022-12-04T02:13:14.408Z,100.00
2022-12-04T02:14:18.871Z,100.00
2022-12-04T02:15:29.526Z,100.00
2022-12-04T02:16:59.837Z,100.00
2022-12-04T02:18:16.299Z,100.00
2022-12-04T02:19:39.882Z,99.23
2022-12-04T02:20:50.522Z,99.10
2022-12-04T02:21:55.824Z,98.79
2022-12-04T02:23:09.361Z,98.65
2022-12-04T02:24:52.490Z,98.01
2022-12-04T02:26:18.950Z,97.78
2022-12-04T02:27:45.364Z,97.52
2022-12-04T02:29:03.390Z,97.63
2022-12-04T02:30:11.592Z,98.10
2022-12-04T02:31:19.050Z,99.02
2022-12-04T02:32:29.022Z,100.00
2022-12-04T02:33:37.586Z,100.00
2022-12-04T02:34:45.865Z,100.00
2022-12-04T02:35:55.475Z,100.00
2022-12-04T02:37:19.728Z,100.00
2022-12-04T02:38:35.699Z,100.00
2022-12-04T02:39:54.956Z,100.00
2022-12-04T02:41:04.418Z,100.00
2022-12-04T02:42:16.414Z,100.00
2022-12-04T02:43:24.428Z,100.00
2022-12-04T02:44:40.895Z,100.00
2022-12-04T02:45:51.634Z,100.00
2022-12-04T02:46:59.398Z,100.00
2022-12-04T02:48:03.060Z,100.00
2022-12-04T02:49:13.104Z,100.00
2022-12-04T02:50:19.403Z,100.00
2022-12-04T02:51:23.489Z,100.00
2022-12-04T02:52:31.788Z,100.00
2022-12-04T02:53:39.046Z,100.00
2022-12-04T02:54:45.781Z,100.00
2022-12-04T02:55:55.660Z,100.00
2022-12-04T02:56:59.546Z,100.00
2022-12-04T02:58:07.346Z,100.00
2022-12-04T02:59:15.664Z,100.00
2022-12-04T03:00:18.491Z,100.00
2022-12-04T03:01:29.550Z,100.00
2022-12-04T03:02:37.885Z,100.00
2022-12-04T03:03:39.565Z,100.00
2022-12-04T03:04:42.482Z,100.00
2022-12-04T03:05:54.575Z,100.00
2022-12-04T03:07:02.281Z,99.44
2022-12-04T03:08:14.807Z,99.73
2022-12-04T03:09:27.974Z,99.31
2022-12-04T03:10:43.932Z,98.55
2022-12-04T03:11:53.823Z,97.41
2022-12-04T03:13:20.490Z,97.02
2022-12-04T03:14:26.172Z,97.17
2022-12-04T03:15:35.483Z,96.31
2022-12-04T03:16:41.067Z,97.00
2022-12-04T03:17:53.099Z,96.24
2022-12-04T03:19:16.082Z,96.90
2022-12-04T03:20:18.942Z,96.94
2022-12-04T03:21:24.933Z,97.22
2022-12-04T03:22:28.074Z,97.50
2022-12-04T03:23:39.578Z,97.50
2022-12-04T03:24:45.772Z,97.43
2022-12-04T03:26:24.068Z,97.95
2022-12-04T03:27:59.687Z,97.80
2022-12-04T03:29:09.825Z,97.35
2022-12-04T03:30:17.922Z,97.18
2022-12-04T03:31:28.967Z,97.17
2022-12-04T03:32:36.594Z,97.59
2022-12-04T03:33:47.720Z,97.52
2022-12-04T03:35:05.076Z,98.39
2022-12-04T03:36:15.190Z,100.00
2022-12-04T03:37:24.469Z,100.00
2022-12-04T03:38:38.096Z,100.00
2022-12-04T03:40:09.119Z,100.00
2022-12-04T03:41:30.035Z,100.00
2022-12-04T03:42:47.353Z,100.00
2022-12-04T03:43:54.675Z,100.00
2022-12-04T03:45:26.419Z,100.00
2022-12-04T03:46:33.958Z,100.00
2022-12-04T03:47:43.233Z,100.00
2022-12-04T03:48:51.097Z,100.00
2022-12-04T03:50:05.018Z,100.00
2022-12-04T03:51:18.063Z,100.00
2022-12-04T03:52:29.876Z,100.00
2022-12-04T03:53:56.964Z,100.00
2022-12-04T03:55:15.546Z,100.00
2022-12-04T03:56:24.813Z,100.00
2022-12-04T03:57:32.889Z,100.00
2022-12-04T03:58:38.811Z,100.00
2022-12-04T03:59:51.132Z,100.00
2022-12-04T04:00:58.274Z,100.00
2022-12-04T04:02:03.155Z,100.00
2022-12-04T04:03:14.318Z,100.00
2022-12-04T04:04:24.751Z,100.00
2022-12-04T04:05:28.173Z,100.00
2022-12-04T04:06:39.130Z,100.00
2022-12-04T04:07:50.113Z,100.00
2022-12-04T04:08:56.826Z,100.00
2022-12-04T04:10:03.701Z,100.00
2022-12-04T04:11:13.753Z,100.00
2022-12-04T04:12:20.018Z,100.00
2022-12-04T04:13:45.309Z,100.00
2022-12-04T04:15:27.240Z,100.00
2022-12-04T04:16:52.633Z,99.54
2022-12-04T04:18:15.595Z,99.50
2022-12-04T04:19:38.067Z,99.15
2022-12-04T04:21:11.680Z,97.13
2022-12-04T04:22:33.061Z,96.70
2022-12-04T04:24:03.423Z,96.08
2022-12-04T04:25:20.565Z,95.83
2022-12-04T04:26:24.215Z,96.24
2022-12-04T04:27:25.774Z,96.02
2022-12-04T04:28:41.653Z,96.39
2022-12-04T04:29:52.329Z,96.55
2022-12-04T04:31:01.342Z,97.43
2022-12-04T04:32:02.884Z,96.80
2022-12-04T04:33:13.512Z,97.46
2022-12-04T04:34:30.311Z,97.05
2022-12-04T04:35:38.636Z,96.60
2022-12-04T04:36:40.119Z,96.73
2022-12-04T04:38:12.363Z,96.79
2022-12-04T04:39:35.865Z,97.16
2022-12-04T04:41:21.421Z,97.12
2022-12-04T04:42:27.420Z,96.64
2022-12-04T04:43:35.488Z,96.91
2022-12-04T04:44:51.836Z,97.22
2022-12-04T04:46:02.490Z,97.29
2022-12-04T04:47:07.313Z,96.86
2022-12-04T04:48:18.064Z,97.25
2022-12-04T04:49:23.488Z,97.44
2022-12-04T04:50:25.197Z,97.34
2022-12-04T04:51:29.005Z,97.54
2022-12-04T04:52:32.333Z,97.05
2022-12-04T04:53:42.303Z,97.16
2022-12-04T04:54:45.439Z,97.16
2022-12-04T04:55:47.611Z,97.20
2022-12-04T04:56:49.470Z,97.04
2022-12-04T04:57:51.003Z,97.16
2022-12-04T04:58:52.620Z,96.88
2022-12-04T04:59:54.485Z,97.23
2022-12-04T05:01:02.656Z,96.97
2022-12-04T05:02:04.808Z,97.28
2022-12-04T05:03:07.284Z,96.97
2022-12-04T05:04:09.007Z,96.61
2022-12-04T05:05:11.968Z,96.67
2022-12-04T05:06:14.030Z,96.81
2022-12-04T05:07:15.695Z,96.08
2022-12-04T05:08:17.442Z,96.56
2022-12-04T05:09:19.072Z,96.05
2022-12-04T05:10:20.626Z,96.39
2022-12-04T05:11:22.325Z,95.95
2022-12-04T05:12:23.909Z,96.44
2022-12-04T05:13:27.534Z,95.61
2022-12-04T05:14:29.103Z,96.09
2022-12-04T05:15:30.640Z,96.29
2022-12-04T05:16:32.772Z,96.50
2022-12-04T05:17:37.415Z,96.84
2022-12-04T05:18:39.072Z,96.88
2022-12-04T05:19:57.389Z,97.40
2022-12-04T05:20:59.223Z,97.35
2022-12-04T05:22:00.807Z,97.23
2022-12-04T05:23:02.318Z,96.87
2022-12-04T05:24:03.983Z,97.12
2022-12-04T05:25:06.323Z,97.26
2022-12-04T05:26:07.951Z,96.96
2022-12-04T05:27:09.498Z,97.39
2022-12-04T05:28:11.147Z,97.34
2022-12-04T05:29:12.674Z,97.77
2022-12-04T05:30:14.405Z,98.11
2022-12-04T05:31:16.012Z,98.05
2022-12-04T05:32:17.605Z,98.43
2022-12-04T05:33:19.178Z,99.49
2022-12-04T05:34:20.853Z,100.00
2022-12-04T05:35:22.480Z,100.00
2022-12-04T05:36:24.135Z,100.00
2022-12-04T05:37:26.281Z,100.00
2022-12-04T05:38:28.067Z,100.00
2022-12-04T05:39:29.709Z,100.00
2022-12-04T05:40:31.241Z,100.00
2022-12-04T05:41:32.766Z,100.00
2022-12-04T05:42:34.830Z,100.00
2022-12-04T05:43:36.609Z,100.00
2022-12-04T05:44:38.171Z,100.00
2022-12-04T05:45:39.746Z,100.00
2022-12-04T05:46:41.291Z,100.00
2022-12-04T05:47:44.204Z,100.00
2022-12-04T05:48:45.813Z,100.00
2022-12-04T05:49:47.427Z,100.00
2022-12-04T05:50:49.012Z,100.00
2022-12-04T05:51:51.403Z,100.00
2022-12-04T05:52:52.906Z,100.00
2022-12-04T05:53:54.462Z,100.00
2022-12-04T05:54:56.050Z,100.00
2022-12-04T05:55:59.321Z,100.00
2022-12-04T05:57:00.885Z,100.00
2022-12-04T05:58:02.653Z,100.00
2022-12-04T05:59:04.238Z,100.00
2022-12-04T06:00:06.447Z,100.00
2022-12-04T06:01:16.704Z,100.00
2022-12-04T06:02:18.317Z,100.00
2022-12-04T06:03:20.617Z,100.00
2022-12-04T06:04:22.216Z,100.00
2022-12-04T06:05:23.968Z,100.00
2022-12-04T06:06:26.464Z,100.00
2022-12-04T06:07:28.056Z,100.00
2022-12-04T06:08:29.601Z,100.00
2022-12-04T06:09:31.147Z,100.00
2022-12-04T06:10:32.690Z,100.00
2022-12-04T06:11:38.753Z,100.00
2022-12-04T06:12:40.310Z,100.00
2022-12-04T06:13:43.250Z,100.00
2022-12-04T06:14:44.767Z,100.00
2022-12-04T06:15:46.333Z,100.00
2022-12-04T06:16:48.061Z,100.00
2022-12-04T06:17:49.746Z,100.00
2022-12-04T06:18:57.720Z,100.00
2022-12-04T06:20:00.288Z,100.00
2022-12-04T06:21:02.277Z,100.00
2022-12-04T06:22:03.958Z,100.00
2022-12-04T06:23:05.557Z,100.00
2022-12-04T06:24:08.198Z,100.00
2022-12-04T06:25:10.486Z,100.00
2022-12-04T06:26:12.611Z,100.00
2022-12-04T06:27:29.472Z,100.00
2022-12-04T06:28:31.358Z,100.00
2022-12-04T06:29:33.571Z,100.00
2022-12-04T06:30:35.159Z,100.00
2022-12-04T06:31:38.152Z,100.00
2022-12-04T06:32:39.912Z,100.00
2022-12-04T06:33:41.722Z,100.00
2022-12-04T06:34:43.323Z,100.00
2022-12-04T06:35:44.829Z,100.00
2022-12-04T06:36:46.350Z,100.00
2022-12-04T06:37:48.210Z,100.00
2022-12-04T06:38:51.613Z,100.00
2022-12-04T06:39:53.435Z,100.00
2022-12-04T06:40:55.443Z,100.00
2022-12-04T06:41:56.960Z,100.00
2022-12-04T06:42:58.544Z,100.00
2022-12-04T06:44:00.119Z,100.00
2022-12-04T06:45:01.686Z,100.00
2022-12-04T06:46:09.695Z,100.00
2022-12-04T06:47:11.487Z,100.00
2022-12-04T06:48:13.122Z,100.00
2022-12-04T06:49:14.735Z,100.00
2022-12-04T06:50:16.374Z,100.00
2022-12-04T06:51:20.665Z,100.00
2022-12-04T06:52:22.249Z,100.00
2022-12-04T06:53:23.877Z,100.00
2022-12-04T06:54:26.263Z,100.00
2022-12-04T06:55:28.510Z,100.00
2022-12-04T06:56:32.648Z,100.00
2022-12-04T06:57:34.255Z,100.00
2022-12-04T06:58:36.513Z,100.00
2022-12-04T06:59:38.086Z,100.00
2022-12-04T07:00:39.681Z,100.00
2022-12-04T07:01:41.450Z,100.00
2022-12-04T07:02:43.252Z,100.00
2022-12-04T07:03:50.978Z,100.00
2022-12-04T07:04:57.090Z,100.00
2022-12-04T07:05:59.161Z,100.00
2022-12-04T07:07:00.839Z,100.00
2022-12-04T07:08:02.748Z,100.00
2022-12-04T07:09:04.576Z,99.93
2022-12-04T07:10:07.154Z,99.76
2022-12-04T07:11:09.200Z,100.00
2022-12-04T07:12:10.758Z,100.00
2022-12-04T07:13:12.389Z,100.00
2022-12-04T07:14:14.658Z,100.00
2022-12-04T07:15:16.264Z,100.00
2022-12-04T07:16:21.202Z,100.00
2022-12-04T07:17:22.788Z,100.00
2022-12-04T07:18:24.379Z,100.00
2022-12-04T07:19:26.102Z,100.00
2022-12-04T07:20:28.147Z,100.00
2022-12-04T07:21:31.642Z,100.00
2022-12-04T07:22:33.330Z,100.00
2022-12-04T07:23:35.620Z,100.00
2022-12-04T07:24:40.370Z,100.00
2022-12-04T07:25:42.003Z,100.00
2022-12-04T07:26:44.458Z,100.00
2022-12-04T07:27:46.214Z,100.00
2022-12-04T07:28:48.934Z,100.00
2022-12-04T07:29:52.922Z,100.00
2022-12-04T07:30:54.910Z,100.00
2022-12-04T07:31:57.083Z,100.00
2022-12-04T07:32:58.868Z,100.00
2022-12-04T07:34:00.542Z,100.00
2022-12-04T07:35:02.398Z,100.00
2022-12-04T07:36:06.086Z,100.00
2022-12-04T07:37:07.958Z,100.00
2022-12-04T07:38:10.146Z,100.00
2022-12-04T07:39:11.808Z,100.00
2022-12-04T07:40:14.234Z,99.86
2022-12-04T07:41:15.913Z,100.00
2022-12-04T07:42:23.847Z,100.00
2022-12-04T07:43:27.337Z,100.00
2022-12-04T07:44:32.242Z,100.00
2022-12-04T07:45:34.033Z,100.00
2022-12-04T07:46:35.864Z,100.00
2022-12-04T07:47:37.668Z,100.00
2022-12-04T07:48:39.487Z,100.00
2022-12-04T07:49:41.123Z,100.00
2022-12-04T07:50:43.012Z,100.00
2022-12-04T07:51:44.547Z,100.00
2022-12-04T07:52:46.124Z,100.00
2022-12-04T07:53:49.227Z,100.00
2022-12-04T07:54:50.810Z,100.00
2022-12-04T07:55:56.111Z,100.00
2022-12-04T07:56:57.937Z,100.00
2022-12-04T07:57:59.629Z,100.00
2022-12-04T07:59:02.253Z,100.00
2022-12-04T08:00:04.506Z,100.00
2022-12-04T08:01:15.881Z,100.00
2022-12-04T08:02:17.559Z,100.00
2022-12-04T08:03:19.116Z,100.00
2022-12-04T08:04:23.990Z,100.00
2022-12-04T08:05:26.023Z,100.00
2022-12-04T08:06:29.458Z,100.00
2022-12-04T08:07:32.477Z,100.00
2022-12-04T08:08:35.381Z,100.00
2022-12-04T08:09:36.919Z,100.00
2022-12-04T08:10:41.523Z,100.00
2022-12-04T08:11:43.091Z,100.00
2022-12-04T08:12:44.741Z,100.00
2022-12-04T08:13:46.454Z,100.00
2022-12-04T08:14:49.713Z,100.00
2022-12-04T08:15:51.852Z,100.00
2022-12-04T08:16:53.702Z,100.00
2022-12-04T08:17:55.331Z,100.00
2022-12-04T08:18:57.398Z,100.00
2022-12-04T08:19:59.065Z,100.00
2022-12-04T08:21:22.270Z,99.08
2022-12-04T08:22:25.439Z,99.35
2022-12-04T08:23:27.124Z,98.49
2022-12-04T08:24:28.676Z,98.76
2022-12-04T08:25:30.280Z,98.04
2022-12-04T08:26:33.735Z,97.89
2022-12-04T08:27:36.030Z,96.98
2022-12-04T08:28:38.075Z,97.63
2022-12-04T08:29:39.613Z,98.36
2022-12-04T08:30:41.189Z,98.16
2022-12-04T08:31:42.834Z,97.95
2022-12-04T08:32:44.609Z,97.59
2022-12-04T08:33:48.069Z,97.96
2022-12-04T08:34:55.726Z,97.27
2022-12-04T08:35:58.529Z,96.87
2022-12-04T08:37:00.125Z,96.65
2022-12-04T08:38:01.700Z,95.79
2022-12-04T08:39:03.713Z,96.11
2022-12-04T08:40:06.026Z,96.09
2022-12-04T08:41:15.039Z,95.34
2022-12-04T08:42:16.606Z,95.48
2022-12-04T08:43:18.235Z,94.94
2022-12-04T08:44:19.862Z,95.25
2022-12-04T08:45:21.413Z,94.60
2022-12-04T08:46:24.942Z,94.17
2022-12-04T08:47:26.615Z,94.03
2022-12-04T08:48:28.385Z,94.43
2022-12-04T08:49:30.435Z,94.48
2022-12-04T08:50:32.054Z,94.70
2022-12-04T08:51:37.559Z,94.72
2022-12-04T08:52:39.136Z,93.72
2022-12-04T08:53:40.782Z,93.57
2022-12-04T08:54:42.332Z,93.22
2022-12-04T08:55:43.970Z,92.86
2022-12-04T08:56:45.547Z,92.79
2022-12-04T08:57:47.076Z,92.68
2022-12-04T08:58:48.811Z,92.48
2022-12-04T08:59:50.405Z,92.73
2022-12-04T09:00:52.065Z,93.61
2022-12-04T09:01:53.741Z,93.37
2022-12-04T09:02:55.370Z,93.14
2022-12-04T09:03:57.207Z,93.42
2022-12-04T09:04:58.945Z,92.88
2022-12-04T09:06:02.007Z,93.76
2022-12-04T09:07:03.669Z,95.12
2022-12-04T09:08:05.771Z,95.31
2022-12-04T09:09:07.389Z,96.11
2022-12-04T09:10:09.626Z,95.74
2022-12-04T09:11:22.422Z,95.58
2022-12-04T09:12:23.966Z,96.26
2022-12-04T09:13:25.494Z,94.70
2022-12-04T09:14:27.068Z,94.56
2022-12-04T09:15:28.693Z,94.11
2022-12-04T09:16:31.026Z,93.89
2022-12-04T09:17:34.006Z,93.82
2022-12-04T09:18:37.203Z,93.37
2022-12-04T09:19:38.988Z,92.75
2022-12-04T09:20:40.576Z,92.68
2022-12-04T09:21:42.238Z,92.64
2022-12-04T09:23:02.730Z,92.48
2022-12-04T09:24:05.367Z,92.01
2022-12-04T09:25:07.773Z,92.05
2022-12-04T09:26:27.682Z,91.12
2022-12-04T09:27:29.236Z,91.58
2022-12-04T09:28:31.217Z,91.76
2022-12-04T09:29:32.754Z,94.34
2022-12-04T09:30:34.294Z,90.74
2022-12-04T09:31:36.027Z,89.20
2022-12-04T09:32:38.252Z,89.07
2022-12-04T09:33:39.859Z,86.52
2022-12-04T09:34:41.426Z,85.31
2022-12-04T09:35:42.952Z,86.47
2022-12-04T09:36:44.510Z,85.58
2022-12-04T09:37:46.125Z,86.54
2022-12-04T09:38:50.640Z,85.58
2022-12-04T09:39:52.307Z,86.83
2022-12-04T09:41:02.574Z,87.84
2022-12-04T09:42:25.226Z,89.29
2022-12-04T09:43:41.906Z,89.83
2022-12-04T09:44:59.889Z,89.70
2022-12-04T09:46:09.668Z,88.29
2022-12-04T09:47:39.884Z,89.29
2022-12-04T09:48:44.423Z,89.81
2022-12-04T09:50:11.911Z,89.44
2022-12-04T09:51:19.004Z,90.44
2022-12-04T09:52:31.074Z,90.00
2022-12-04T09:54:09.776Z,87.91
2022-12-04T09:55:17.943Z,88.25
2022-12-04T09:56:21.300Z,88.73
2022-12-04T09:57:46.805Z,89.13
2022-12-04T09:59:04.396Z,88.99
2022-12-04T10:00:10.953Z,89.43
2022-12-04T10:01:21.360Z,87.49
2022-12-04T10:02:36.736Z,86.23
2022-12-04T10:03:40.075Z,86.23
2022-12-04T10:04:41.880Z,85.21
2022-12-04T10:06:07.981Z,85.56
2022-12-04T10:07:19.580Z,84.36
2022-12-04T10:08:40.364Z,85.04
2022-12-04T10:09:56.396Z,85.57
2022-12-04T10:11:10.022Z,86.25
2022-12-04T10:12:30.007Z,85.43
2022-12-04T10:14:03.581Z,84.72
2022-12-04T10:15:35.697Z,83.94
2022-12-04T10:17:02.356Z,84.07
2022-12-04T10:18:32.625Z,84.14
2022-12-04T10:19:52.909Z,82.77
2022-12-04T10:21:06.365Z,83.70
2022-12-04T10:22:16.968Z,84.01
2022-12-04T10:23:43.269Z,83.49
2022-12-04T10:24:48.295Z,84.07
2022-12-04T10:25:54.887Z,83.65
2022-12-04T10:27:01.488Z,83.74
2022-12-04T10:28:08.850Z,83.71
2022-12-04T10:29:38.891Z,84.89
2022-12-04T10:30:42.909Z,85.13
2022-12-04T10:31:46.632Z,83.94
2022-12-04T10:32:52.466Z,83.81
2022-12-04T10:33:56.061Z,83.64
2022-12-04T10:35:08.272Z,83.25
2022-12-04T10:36:34.328Z,82.93
2022-12-04T10:37:41.629Z,83.02
2022-12-04T10:39:07.687Z,81.55
2022-12-04T10:40:22.524Z,82.34
2022-12-04T10:41:57.736Z,82.68
2022-12-04T10:43:22.316Z,82.26
2022-12-04T10:44:24.139Z,82.36
2022-12-04T10:45:25.724Z,81.34
2022-12-04T10:46:29.525Z,81.92
2022-12-04T10:47:31.788Z,81.70
2022-12-04T10:48:37.977Z,81.95
2022-12-04T10:49:39.849Z,81.96
2022-12-04T10:50:41.441Z,81.97
2022-12-04T10:51:43.777Z,81.39
2022-12-04T10:52:45.620Z,81.74
2022-12-04T10:53:49.743Z,82.24
2022-12-04T10:54:58.842Z,81.09
2022-12-04T10:56:15.983Z,81.82
2022-12-04T10:57:18.023Z,81.66
2022-12-04T10:58:20.656Z,80.76
2022-12-04T10:59:22.543Z,80.76
2022-12-04T11:00:30.566Z,81.22
2022-12-04T11:01:34.428Z,79.66
2022-12-04T11:02:38.627Z,79.90
2022-12-04T11:03:44.266Z,79.58
2022-12-04T11:04:56.988Z,80.57
2022-12-04T11:06:01.456Z,80.21
2022-12-04T11:07:24.906Z,80.01
2022-12-04T11:08:33.957Z,79.32
2022-12-04T11:09:35.730Z,79.93
2022-12-04T11:10:43.492Z,79.24
2022-12-04T11:11:45.038Z,79.64
2022-12-04T11:13:06.696Z,79.71
2022-12-04T11:14:15.210Z,79.98
2022-12-04T11:15:17.164Z,79.81
2022-12-04T11:16:37.924Z,79.65
2022-12-04T11:17:40.534Z,78.93
2022-12-04T11:18:50.248Z,79.17
2022-12-04T11:20:20.638Z,77.95
2022-12-04T11:21:29.555Z,77.21
2022-12-04T11:22:31.766Z,76.62
2022-12-04T11:23:45.699Z,76.48
2022-12-04T11:24:54.327Z,76.91
2022-12-04T11:26:05.250Z,76.25
2022-12-04T11:27:16.365Z,76.60
2022-12-04T11:28:40.513Z,76.19
2022-12-04T11:29:46.596Z,76.74
2022-12-04T11:30:55.148Z,76.59
2022-12-04T11:32:01.424Z,79.39
2022-12-04T11:33:37.774Z,77.57
2022-12-04T11:34:41.441Z,77.16
2022-12-04T11:35:43.042Z,76.56
2022-12-04T11:36:54.508Z,77.55
2022-12-04T11:38:15.286Z,77.56
2022-12-04T11:39:22.851Z,78.30
2022-12-04T11:40:25.859Z,79.51
2022-12-04T11:41:30.200Z,78.41
2022-12-04T11:42:32.080Z,78.88
2022-12-04T11:43:36.886Z,77.99
2022-12-04T11:44:38.995Z,78.49
2022-12-04T11:45:41.250Z,78.71
2022-12-04T11:46:53.817Z,79.23
2022-12-04T11:48:12.596Z,79.51
2022-12-04T11:49:22.353Z,78.38
2022-12-04T11:50:53.300Z,76.88
2022-12-04T11:52:17.102Z,77.95
2022-12-04T11:53:32.841Z,78.26
2022-12-04T11:54:52.574Z,77.69
2022-12-04T11:56:06.376Z,77.57
2022-12-04T11:57:30.156Z,76.11
2022-12-04T11:59:01.883Z,76.51
2022-12-04T12:00:13.455Z,77.09
2022-12-04T12:01:39.658Z,76.26
2022-12-04T12:02:50.135Z,76.96
2022-12-04T12:04:10.274Z,76.84
2022-12-04T12:05:35.063Z,76.33
2022-12-04T12:06:39.385Z,76.68
2022-12-04T12:08:02.912Z,76.49
2022-12-04T12:09:36.461Z,73.94
2022-12-04T12:10:51.803Z,73.91
2022-12-04T12:12:03.361Z,73.50
2022-12-04T12:13:26.146Z,72.15
2022-12-04T12:14:33.681Z,72.22
2022-12-04T12:16:00.148Z,72.65
2022-12-04T12:17:25.658Z,72.32
2022-12-04T12:18:46.739Z,72.89
2022-12-04T12:19:51.304Z,72.04
2022-12-04T12:21:13.882Z,72.62
2022-12-04T12:22:33.653Z,72.12
2022-12-04T12:24:03.453Z,72.24
2022-12-04T12:25:13.978Z,74.49
2022-12-04T12:26:17.945Z,72.72
2022-12-04T12:27:28.559Z,71.57
2022-12-04T12:29:02.258Z,73.18
2022-12-04T12:30:09.818Z,71.92
2022-12-04T12:31:37.045Z,70.74
2022-12-04T12:33:12.192Z,72.76
2022-12-04T12:34:31.393Z,72.81
2022-12-04T12:35:54.322Z,72.10
2022-12-04T12:37:01.070Z,72.06
2022-12-04T12:38:10.330Z,72.28
2022-12-04T12:39:31.798Z,71.94
2022-12-04T12:40:33.311Z,72.35
2022-12-04T12:41:40.484Z,72.20
2022-12-04T12:43:13.680Z,73.13
2022-12-04T12:44:34.748Z,72.24
2022-12-04T12:46:21.325Z,72.25
2022-12-04T12:47:28.689Z,71.75
2022-12-04T12:48:30.226Z,71.48
2022-12-04T12:49:36.806Z,72.05
2022-12-04T12:51:08.917Z,71.92
2022-12-04T12:52:29.857Z,72.51
2022-12-04T12:53:37.648Z,72.69
2022-12-04T12:54:39.348Z,72.96
2022-12-04T12:55:54.286Z,72.24
2022-12-04T12:57:02.905Z,72.49
2022-12-04T12:58:31.820Z,72.92
2022-12-04T12:59:34.333Z,72.75
2022-12-04T13:01:13.361Z,72.81
2022-12-04T13:02:27.488Z,73.06
2022-12-04T13:03:47.327Z,73.22
2022-12-04T13:04:53.066Z,73.76
2022-12-04T13:05:59.779Z,73.06
2022-12-04T13:07:08.413Z,73.61
2022-12-04T13:08:29.733Z,73.93
2022-12-04T13:09:34.396Z,74.28
2022-12-04T13:10:41.742Z,73.85
2022-12-04T13:11:46.873Z,74.79
2022-12-04T13:12:53.929Z,74.69
2022-12-04T13:13:59.230Z,74.44
2022-12-04T13:15:00.971Z,74.82
2022-12-04T13:16:18.729Z,74.70
2022-12-04T13:17:33.930Z,74.51
2022-12-04T13:18:44.574Z,75.10
2022-12-04T13:19:53.948Z,75.31
2022-12-04T13:20:59.187Z,75.09
2022-12-04T13:22:22.221Z,74.93
2022-12-04T13:23:58.922Z,75.57
2022-12-04T13:25:22.770Z,75.65
2022-12-04T13:26:49.490Z,76.29
2022-12-04T13:28:18.049Z,75.97
2022-12-04T13:29:50.606Z,76.28
2022-12-04T13:31:27.199Z,75.73
2022-12-04T13:32:43.106Z,75.84
2022-12-04T13:33:55.032Z,75.80
2022-12-04T13:34:56.563Z,76.98
2022-12-04T13:36:13.103Z,76.33
2022-12-04T13:37:36.627Z,76.01
2022-12-04T13:38:58.237Z,75.23
2022-12-04T13:40:09.201Z,75.41
2022-12-04T13:41:17.794Z,75.39
2022-12-04T13:42:26.625Z,76.36
2022-12-04T13:43:47.254Z,75.49
2022-12-04T13:44:57.686Z,75.51
2022-12-04T13:46:04.914Z,76.34
2022-12-04T13:47:08.789Z,76.20
2022-12-04T13:48:10.721Z,75.97
2022-12-04T13:49:18.415Z,76.00
2022-12-04T13:50:20.031Z,76.42
2022-12-04T13:51:25.965Z,76.91
2022-12-04T13:52:40.679Z,76.48
2022-12-04T13:53:43.856Z,76.55
2022-12-04T13:55:00.207Z,76.07
2022-12-04T13:56:07.351Z,76.39
2022-12-04T13:57:12.685Z,76.01
2022-12-04T13:58:14.168Z,76.75
2022-12-04T13:59:28.016Z,76.84
2022-12-04T14:00:32.782Z,76.18
2022-12-04T14:01:44.861Z,76.68
2022-12-04T14:02:52.968Z,76.92
2022-12-04T14:03:57.411Z,76.85
2022-12-04T14:05:06.659Z,76.22
2022-12-04T14:06:31.044Z,77.11
2022-12-04T14:07:38.635Z,76.72
2022-12-04T14:08:43.186Z,76.42
2022-12-04T14:09:53.504Z,76.75
2022-12-04T14:11:08.636Z,77.33
2022-12-04T14:12:14.044Z,76.48
2022-12-04T14:13:21.776Z,77.01
2022-12-04T14:14:53.020Z,76.76
2022-12-04T14:16:06.012Z,76.80
2022-12-04T14:17:25.468Z,76.49
2022-12-04T14:18:29.770Z,76.78
2022-12-04T14:19:35.489Z,76.46
2022-12-04T14:20:37.774Z,77.21
2022-12-04T14:21:47.503Z,77.35
2022-12-04T14:22:49.085Z,77.74
2022-12-04T14:23:52.331Z,77.85
2022-12-04T14:25:25.104Z,77.75